Latest Weather Observations for Hope Banks Beacon

IDQ60801

Issued at 12:22 pm EST Friday 7 October 2022 (issued every 10 minutes, with the page automatically refreshed every 10 minutes)

About weather observations | Map of weather stations | Latest weather observations for QLD | Other Formats
Station Details ID: 200897 Name: HOPE BANKS BEACON Lat: -27.43 Lon: 153.29 Height: 7.0 m
Data from the previous 72 hours. | See also: Recent months for locations in Queensland
Date/Time
EST
Temp
°C
App
Temp
°C
Dew
Point
°C
Rel
Hum
%
Delta-T
°C
Wind Press
QNH
hPa
Press
MSL
hPa
Rain since
9am
mm
Dir  Spd
km/h
Gust
km/h
Spd
kts
Gust
kts
07/12:00pm - - - - - NNE 13 19 7 10 - - -
07/11:30am - - - - - NE 15 20 8 11 - - -
07/11:00am - - - - - CALM 0 9 0 5 - - -
07/10:30am - - - - - CALM 0 7 0 4 - - -
07/10:00am - - - - - ENE 2 9 1 5 - - -
07/09:30am - - - - - ENE 13 19 7 10 - - -
07/09:00am - - - - - NE 13 19 7 10 - - -
07/08:30am - - - - - ENE 6 7 3 4 - - -
07/08:00am - - - - - N 6 7 3 4 - - -
07/07:30am - - - - - NE 7 9 4 5 - - -
07/07:00am - - - - - ENE 6 7 3 4 - - -
07/06:30am - - - - - NE 9 11 5 6 - - -
07/06:00am - - - - - NE 9 11 5 6 - - -
07/05:30am - - - - - NE 11 15 6 8 - - -
07/05:00am - - - - - ENE 6 7 3 4 - - -
07/04:30am - - - - - E 9 11 5 6 - - -
07/04:00am - - - - - E 9 11 5 6 - - -
07/03:30am - - - - - E 11 13 6 7 - - -
07/03:00am - - - - - ENE 13 15 7 8 - - -
07/02:30am - - - - - NE 13 17 7 9 - - -
07/02:00am - - - - - NE 13 17 7 9 - - -
07/01:30am - - - - - NE 13 17 7 9 - - -
07/01:00am - - - - - NE 15 19 8 10 - - -
07/12:30am - - - - - ESE 7 15 4 8 - - -
07/12:00am - - - - - S 9 13 5 7 - - -
 
Date/Time
EST
Temp
°C
App
Temp
°C
Dew
Point
°C
Rel
Hum
%
Delta-T
°C
Wind Press
QNH
hPa
Press
MSL
hPa
Rain since
9am
mm
Dir  Spd
km/h
Gust
km/h
Spd
kts
Gust
kts
06/11:30pm - - - - - SE 6 7 3 4 - - -
06/11:00pm - - - - - SSE 4 6 2 3 - - -
06/10:30pm - - - - - SSE 6 7 3 4 - - -
06/10:00pm - - - - - NE 4 6 2 3 - - -
06/09:30pm - - - - - CALM 0 0 0 0 - - -
06/09:00pm - - - - - CALM 0 0 0 0 - - -
06/08:30pm - - - - - N 4 6 2 3 - - -
06/08:00pm - - - - - N 7 11 4 6 - - -
06/07:30pm - - - - - NNE 19 22 10 12 - - -
06/07:00pm - - - - - E 15 17 8 9 - - -
06/06:30pm - - - - - E 19 22 10 12 - - -
06/06:00pm - - - - - ESE 20 22 11 12 - - -
06/05:30pm - - - - - ESE 20 22 11 12 - - -
06/05:00pm - - - - - ESE 19 22 10 12 - - -
06/04:30pm - - - - - ESE 20 24 11 13 - - -
06/04:00pm - - - - - ESE 17 20 9 11 - - -
06/03:30pm - - - - - ENE 13 17 7 9 - - -
06/03:00pm - - - - - ENE 13 15 7 8 - - -
06/02:30pm - - - - - ENE 13 20 7 11 - - -
06/02:00pm - - - - - ESE 6 7 3 4 - - -
06/01:30pm - - - - - E 13 19 7 10 - - -
06/01:00pm - - - - - S 15 17 8 9 - - -
06/12:30pm - - - - - SE 13 15 7 8 - - -
06/12:00pm - - - - - ESE 15 19 8 10 - - -
06/11:30am - - - - - ESE 17 19 9 10 - - -
06/11:00am - - - - - ESE 15 20 8 11 - - -
06/10:30am - - - - - SSE 13 15 7 8 - - -
06/10:00am - - - - - SW 9 11 5 6 - - -
06/09:30am - - - - - S 13 15 7 8 - - -
06/09:00am - - - - - SSE 9 13 5 7 - - -
06/08:30am - - - - - CALM 0 4 0 2 - - -
06/08:00am - - - - - S 9 13 5 7 - - -
06/07:30am - - - - - S 13 17 7 9 - - -
06/07:00am - - - - - S 15 19 8 10 - - -
06/06:30am - - - - - SSE 15 19 8 10 - - -
06/06:00am - - - - - S 11 13 6 7 - - -
06/05:30am - - - - - SSE 13 17 7 9 - - -
06/05:00am - - - - - SSE 7 9 4 5 - - -
06/04:30am - - - - - SSE 7 15 4 8 - - -
06/04:00am - - - - - SSE 15 20 8 11 - - -
06/03:30am - - - - - SSE 11 15 6 8 - - -
06/03:00am - - - - - ESE 9 11 5 6 - - -
06/02:30am - - - - - SE 11 15 6 8 - - -
06/02:00am - - - - - SSE 13 17 7 9 - - -
06/01:30am - - - - - SSE 11 13 6 7 - - -
06/01:00am - - - - - SSE 15 19 8 10 - - -
06/12:30am - - - - - SSE 15 17 8 9 - - -
06/12:00am - - - - - ENE 11 15 6 8 - - -
 
Date/Time
EST
Temp
°C
App
Temp
°C
Dew
Point
°C
Rel
Hum
%
Delta-T
°C
Wind Press
QNH
hPa
Press
MSL
hPa
Rain since
9am
mm
Dir  Spd
km/h
Gust
km/h
Spd
kts
Gust
kts
05/11:30pm - - - - - NNE 15 17 8 9 - - -
05/11:00pm - - - - - NE 15 24 8 13 - - -
05/10:30pm - - - - - ENE 17 22 9 12 - - -
05/10:00pm - - - - - NE 20 24 11 13 - - -
05/09:30pm - - - - - NE 24 28 13 15 - - -
05/09:00pm - - - - - NE 19 24 10 13 - - -
05/08:30pm - - - - - ENE 19 24 10 13 - - -
05/08:00pm - - - - - E 22 26 12 14 - - -
05/07:30pm - - - - - E 22 26 12 14 - - -
05/07:00pm - - - - - E 28 32 15 17 - - -
05/06:30pm - - - - - E 24 28 13 15 - - -
05/06:00pm - - - - - E 19 24 10 13 - - -
05/05:30pm - - - - - E 24 28 13 15 - - -
05/05:00pm - - - - - E 20 26 11 14 - - -
05/04:30pm - - - - - E 19 22 10 12 - - -
05/04:00pm - - - - - E 24 28 13 15 - - -
05/03:30pm - - - - - ESE 20 24 11 13 - - -
05/03:00pm - - - - - E 17 24 9 13 - - -
05/02:30pm - - - - - E 17 22 9 12 - - -
05/02:00pm - - - - - ESE 17 20 9 11 - - -
05/01:30pm - - - - - ESE 11 17 6 9 - - -
05/01:00pm - - - - - SE 7 9 4 5 - - -
05/12:30pm - - - - - E 4 6 2 3 - - -
05/12:00pm - - - - - CALM 0 2 0 1 - - -
05/11:30am - - - - - CALM 0 6 0 3 - - -
05/11:00am - - - - - ESE 11 17 6 9 - - -
05/10:30am - - - - - ESE 17 20 9 11 - - -
05/10:00am - - - - - NNW 6 9 3 5 - - -
05/09:30am - - - - - SSE 13 15 7 8 - - -
05/09:00am - - - - - S 13 15 7 8 - - -
05/08:30am - - - - - SSE 17 19 9 10 - - -
05/08:00am - - - - - SSE 19 20 10 11 - - -
05/07:30am - - - - - S 17 20 9 11 - - -
05/07:00am - - - - - S 13 17 7 9 - - -
05/06:30am - - - - - SSW 11 13 6 7 - - -
05/06:00am - - - - - S 9 9 5 5 - - -
05/05:30am - - - - - S 11 13 6 7 - - -
05/05:00am - - - - - S 11 11 6 6 - - -
05/04:30am - - - - - S 11 13 6 7 - - -
05/04:00am - - - - - SSE 9 11 5 6 - - -
05/03:30am - - - - - SE 9 13 5 7 - - -
05/03:00am - - - - - SE 4 9 2 5 - - -
05/02:30am - - - - - ESE 6 7 3 4 - - -
05/02:00am - - - - - ESE 6 9 3 5 - - -
05/01:30am - - - - - E 6 7 3 4 - - -
05/01:00am - - - - - E 6 7 3 4 - - -
05/12:30am - - - - - E 7 7 4 4 - - -
05/12:00am - - - - - ENE 7 9 4 5 - - -
 
Date/Time
EST
Temp
°C
App
Temp
°C
Dew
Point
°C
Rel
Hum
%
Delta-T
°C
Wind Press
QNH
hPa
Press
MSL
hPa
Rain since
9am
mm
Dir  Spd
km/h
Gust
km/h
Spd
kts
Gust
kts
04/11:30pm - - - - - NE 9 11 5 6 - - -
04/11:00pm - - - - - NE 11 13 6 7 - - -
04/10:30pm - - - - - NE 11 13 6 7 - - -
04/10:00pm - - - - - NE 13 15 7 8 - - -
04/09:30pm - - - - - NE 9 13 5 7 - - -
04/09:00pm - - - - - NE 11 13 6 7 - - -
04/08:30pm - - - - - NE 11 15 6 8 - - -
04/08:00pm - - - - - NE 13 15 7 8 - - -
04/07:30pm - - - - - NE 13 15 7 8 - - -
04/07:00pm - - - - - NE 13 15 7 8 - - -
04/06:30pm - - - - - NE 13 15 7 8 - - -
04/06:00pm - - - - - NE 13 17 7 9 - - -
04/05:30pm - - - - - NE 13 17 7 9 - - -
04/05:00pm - - - - - NE 15 20 8 11 - - -
04/04:30pm - - - - - NE 15 19 8 10 - - -
04/04:00pm - - - - - NE 15 20 8 11 - - -
04/03:30pm - - - - - ENE 13 20 7 11 - - -
04/03:00pm - - - - - ENE 11 15 6 8 - - -
04/02:30pm - - - - - E 15 20 8 11 - - -
04/02:00pm - - - - - E 4 6 2 3 - - -
04/01:30pm - - - - - E 6 7 3 4 - - -
04/01:00pm - - - - - ESE 4 7 2 4 - - -
04/12:30pm - - - - - W 4 6 2 3 - - -

Other formats

Comma delimited format used in spreadsheet applications
http://www.bom.gov.au/fwo/IDQ60801/IDQ60801.99497.axf

JavaScript Object Notation format (JSON) in row-major order
http://www.bom.gov.au/fwo/IDQ60801/IDQ60801.99497.json

Data quality

Most of these data are generated automatically and are frequently updated. Quality checks on data are not normally performed. It is possible for incorrect values to appear. Refer to information at About Latest Weather Observations and please check the disclaimer before using these data.